Time;durP1;ratioP1;P1;durP2;ratioP2;P2;SDS_P1;SDS_P2;PMS_P1;PMS_P2;Temp;Humidity;BMP_temperature;BMP_pressure;BME280_temperature;BME280_humidity;BME280_pressure;Samples;Min_cycle;Max_cycle;Signal;HPM_P1;HPM_P2
2023/10/16 00:01:27;;;;;;;4.90;4.30;;;10.20;99.90;;;;;;5002159;28;20494;-68
2023/10/16 00:03:55;;;;;;;5.77;4.40;;;10.20;99.90;;;;;;4999991;28;20870;-69
2023/10/16 00:06:21;;;;;;;6.20;3.80;;;10.20;99.90;;;;;;4997538;28;20511;-68
2023/10/16 00:08:47;;;;;;;6.50;4.20;;;10.10;99.90;;;;;;4997007;28;20535;-68
2023/10/16 00:11:17;;;;;;;6.03;3.73;;;10.10;99.90;;;;;;4998304;28;20220;-68
2023/10/16 00:13:50;;;;;;;5.83;4.10;;;10.10;99.90;;;;;;4999895;28;20670;-68
2023/10/16 00:16:17;;;;;;;4.93;3.60;;;10.10;99.90;;;;;;5004620;28;20428;-68
2023/10/16 00:18:45;;;;;;;5.70;3.50;;;10.10;99.90;;;;;;4998032;28;20566;-68
2023/10/16 00:21:11;;;;;;;5.63;3.93;;;10.00;99.90;;;;;;4994759;28;20534;-68
2023/10/16 00:23:39;;;;;;;5.10;3.60;;;10.00;99.90;;;;;;4994552;28;20933;-69
2023/10/16 00:26:10;;;;;;;3.90;2.97;;;9.90;99.90;;;;;;4999862;28;20436;-68
2023/10/16 00:28:44;;;;;;;4.30;3.20;;;9.90;99.90;;;;;;4999777;28;20428;-70
2023/10/16 00:31:10;;;;;;;4.17;3.27;;;9.90;99.90;;;;;;4995879;28;20858;-68
2023/10/16 00:33:36;;;;;;;4.20;3.20;;;9.90;99.90;;;;;;4995788;28;20470;-69
2023/10/16 00:36:02;;;;;;;4.00;3.03;;;9.90;99.90;;;;;;4993364;28;20432;-68
2023/10/16 00:38:36;;;;;;;6.37;3.77;;;9.90;99.90;;;;;;4995009;28;20693;-68
2023/10/16 00:43:40;;;;;;;7.53;3.70;;;9.80;99.90;;;;;;4995602;28;20467;-68
2023/10/16 00:46:08;;;;;;;7.40;3.70;;;9.80;99.90;;;;;;4996941;28;20429;-68
2023/10/16 00:48:36;;;;;;;4.70;3.10;;;9.80;99.90;;;;;;4998372;28;20447;-68
2023/10/16 00:51:08;;;;;;;4.80;3.30;;;9.70;99.90;;;;;;4995389;28;20425;-68
2023/10/16 00:53:35;;;;;;;4.00;2.97;;;9.70;99.90;;;;;;4996118;28;20522;-68
2023/10/16 00:56:07;;;;;;;4.50;3.20;;;9.70;99.90;;;;;;4999223;28;20506;-68
2023/10/16 00:58:37;;;;;;;5.03;3.13;;;9.60;99.90;;;;;;4993573;28;20465;-68
2023/10/16 01:01:08;;;;;;;5.10;3.00;;;9.60;99.90;;;;;;4993108;28;21030;-69
2023/10/16 01:03:36;;;;;;;5.40;3.70;;;9.60;99.90;;;;;;4998213;28;20486;-68
2023/10/16 01:06:03;;;;;;;4.20;3.50;;;9.60;99.90;;;;;;5002851;28;20424;-68
2023/10/16 01:08:30;;;;;;;4.50;3.63;;;9.60;99.90;;;;;;4995986;28;20461;-68
2023/10/16 01:10:58;;;;;;;5.73;3.70;;;9.60;99.90;;;;;;4997015;28;20424;-68
2023/10/16 01:13:28;;;;;;;5.43;3.57;;;9.50;99.90;;;;;;5001426;28;20806;-68
2023/10/16 01:15:56;;;;;;;3.57;2.93;;;9.50;99.90;;;;;;5002210;28;20435;-68
2023/10/16 01:18:23;;;;;;;4.20;2.87;;;9.50;99.90;;;;;;5002380;28;20462;-68
2023/10/16 01:20:50;;;;;;;5.10;3.00;;;9.50;99.90;;;;;;5005670;28;20435;-68
2023/10/16 01:23:20;;;;;;;4.37;3.20;;;9.50;99.90;;;;;;4998213;28;20431;-68
2023/10/16 01:25:49;;;;;;;4.13;3.20;;;9.50;99.90;;;;;;4995518;28;20436;-67
2023/10/16 01:28:16;;;;;;;5.43;3.00;;;9.50;99.90;;;;;;4999721;28;20428;-68
2023/10/16 01:30:43;;;;;;;4.53;3.10;;;9.50;99.90;;;;;;5001517;28;20463;-69
2023/10/16 01:33:09;;;;;;;4.30;3.00;;;9.50;99.90;;;;;;5004720;28;20452;-69
2023/10/16 01:35:36;;;;;;;6.10;3.37;;;9.40;99.90;;;;;;4996764;28;20441;-69
2023/10/16 01:38:14;;;;;;;3.90;3.30;;;9.40;99.90;;;;;;5001360;28;20189;-68
2023/10/16 01:40:47;;;;;;;5.00;2.83;;;9.30;99.90;;;;;;4999604;28;20420;-68
2023/10/16 01:43:16;;;;;;;4.87;3.10;;;9.40;99.90;;;;;;4998119;28;20496;-69
2023/10/16 01:45:50;;;;;;;4.10;2.80;;;9.30;99.90;;;;;;4995737;28;20447;-68
2023/10/16 01:48:19;;;;;;;4.87;3.20;;;9.30;99.90;;;;;;5001942;28;20459;-68
2023/10/16 01:50:49;;;;;;;4.63;3.00;;;9.20;99.90;;;;;;5004351;28;20570;-68
2023/10/16 01:53:20;;;;;;;6.93;3.53;;;9.20;99.90;;;;;;4999878;28;20486;-68
2023/10/16 01:55:51;;;;;;;4.43;3.10;;;9.10;99.90;;;;;;5000312;28;20817;-68
2023/10/16 01:58:17;;;;;;;4.37;3.07;;;9.10;99.90;;;;;;4999799;28;20478;-68
2023/10/16 02:00:45;;;;;;;10.07;3.27;;;9.10;99.90;;;;;;5000650;28;20428;-68
2023/10/16 02:03:11;;;;;;;5.30;3.10;;;9.10;99.90;;;;;;4996578;28;20962;-68
2023/10/16 02:05:41;;;;;;;4.30;3.07;;;9.10;99.90;;;;;;5001635;28;20460;-68
2023/10/16 02:08:07;;;;;;;4.43;3.10;;;9.10;99.90;;;;;;5000355;28;20521;-68
2023/10/16 02:10:32;;;;;;;6.50;3.87;;;9.10;99.90;;;;;;4998896;28;20455;-68
2023/10/16 02:12:58;;;;;;;4.77;2.90;;;9.10;99.90;;;;;;5000900;28;20961;-68
2023/10/16 02:15:24;;;;;;;5.27;3.20;;;9.10;99.90;;;;;;4998916;28;20741;-68
2023/10/16 02:17:49;;;;;;;3.80;3.40;;;9.10;99.90;;;;;;5000560;28;20284;-68
2023/10/16 02:20:17;;;;;;;5.43;3.03;;;9.10;99.90;;;;;;5002134;28;20189;-68
2023/10/16 02:22:43;;;;;;;3.63;2.73;;;9.10;99.90;;;;;;5000767;28;20308;-68
2023/10/16 02:25:09;;;;;;;6.57;3.60;;;9.10;99.90;;;;;;4994118;28;21037;-68
2023/10/16 02:27:37;;;;;;;3.80;3.10;;;9.10;99.90;;;;;;4997151;28;20467;-68
2023/10/16 02:30:28;;;;;;;4.93;3.37;;;9.10;99.90;;;;;;4999380;28;20620;-69
2023/10/16 02:33:10;;;;;;;4.37;2.90;;;9.10;99.90;;;;;;5002802;28;20478;-69
2023/10/16 02:35:37;;;;;;;3.70;2.47;;;9.10;99.90;;;;;;5008225;28;20433;-69
2023/10/16 02:38:04;;;;;;;3.60;2.60;;;9.00;99.90;;;;;;5010757;28;20467;-69
2023/10/16 02:40:32;;;;;;;4.30;3.00;;;9.00;99.90;;;;;;5005468;28;20652;-69
2023/10/16 02:43:01;;;;;;;4.63;3.47;;;8.90;99.90;;;;;;5015778;28;20464;-69
2023/10/16 02:45:27;;;;;;;4.73;2.80;;;8.90;99.90;;;;;;5005745;28;20420;-69
2023/10/16 02:47:53;;;;;;;5.50;3.10;;;8.90;99.90;;;;;;5004064;28;20785;-69
2023/10/16 02:50:20;;;;;;;3.50;2.83;;;8.90;99.90;;;;;;5002024;28;20282;-69
2023/10/16 02:52:47;;;;;;;6.47;2.90;;;8.80;99.90;;;;;;5002822;28;20934;-69
2023/10/16 02:55:14;;;;;;;4.57;3.10;;;8.80;99.90;;;;;;4998092;28;20905;-68
2023/10/16 02:57:40;;;;;;;4.80;2.80;;;8.70;99.90;;;;;;5013312;28;20993;-68
2023/10/16 03:03:06;;;;;;;3.20;2.53;;;8.70;99.90;;;;;;5003979;28;20749;-68
2023/10/16 03:05:32;;;;;;;4.33;2.90;;;8.70;99.90;;;;;;5000451;28;20428;-69
2023/10/16 03:07:57;;;;;;;3.37;3.03;;;8.60;99.90;;;;;;4962311;28;1054025;-69
2023/10/16 03:10:24;;;;;;;5.43;2.80;;;8.60;99.90;;;;;;5002807;28;20193;-69
2023/10/16 03:12:50;;;;;;;4.13;2.50;;;8.60;99.90;;;;;;4999859;28;20202;-69
2023/10/16 03:15:20;;;;;;;3.83;2.60;;;8.60;99.90;;;;;;5002166;28;20442;-69
2023/10/16 03:17:54;;;;;;;4.10;2.83;;;8.50;99.90;;;;;;5003292;28;20235;-68
2023/10/16 03:20:24;;;;;;;4.70;2.70;;;8.50;99.90;;;;;;5001362;28;20435;-68
2023/10/16 03:22:53;;;;;;;4.37;2.97;;;8.50;99.90;;;;;;4993627;28;20466;-68
2023/10/16 03:25:50;;;;;;;3.83;3.07;;;8.50;99.90;;;;;;4996425;28;23636;-68
2023/10/16 03:28:11;;;;;;;4.20;2.90;;;8.50;99.90;;;;;;4999918;28;20202;-69
2023/10/16 03:30:39;;;;;;;3.97;2.80;;;8.40;99.90;;;;;;4998217;28;20521;-68
2023/10/16 03:33:05;;;;;;;6.17;2.77;;;8.50;99.90;;;;;;4994839;28;20448;-68
2023/10/16 03:35:31;;;;;;;5.30;2.87;;;8.50;99.90;;;;;;4998888;28;20454;-68
2023/10/16 03:37:57;;;;;;;3.67;2.87;;;8.50;99.90;;;;;;5001876;28;20213;-68
2023/10/16 03:40:27;;;;;;;4.73;3.47;;;8.50;99.90;;;;;;4999525;28;20432;-69
2023/10/16 03:42:53;;;;;;;4.33;2.83;;;8.50;99.90;;;;;;5000751;28;20480;-69
2023/10/16 03:45:22;;;;;;;3.27;2.70;;;8.50;99.90;;;;;;5000217;28;20439;-69
2023/10/16 03:47:57;;;;;;;3.43;2.50;;;8.40;99.90;;;;;;5000254;28;20471;-69
2023/10/16 03:50:25;;;;;;;5.23;2.70;;;8.50;99.90;;;;;;5000235;28;20428;-69
2023/10/16 03:52:56;;;;;;;4.70;2.70;;;8.40;99.90;;;;;;4996588;28;20539;-69
2023/10/16 03:55:22;;;;;;;5.80;2.93;;;8.40;99.90;;;;;;4997102;28;20862;-69
2023/10/16 03:57:50;;;;;;;3.70;3.20;;;8.40;99.90;;;;;;4995518;28;20500;-68
2023/10/16 04:00:25;;;;;;;3.60;2.63;;;8.40;99.90;;;;;;4998636;28;20431;-68
2023/10/16 04:02:51;;;;;;;4.67;3.60;;;8.40;99.90;;;;;;4998729;28;20486;-68
2023/10/16 04:08:01;;;;;;;2.97;2.67;;;8.30;99.90;;;;;;5000303;28;20223;-69
2023/10/16 04:10:30;;;;;;;5.67;3.07;;;8.30;99.90;;;;;;4997370;28;20432;-69
2023/10/16 04:12:57;;;;;;;3.30;2.77;;;8.20;99.90;;;;;;4998457;28;20234;-69
2023/10/16 04:18:28;;;;;;;5.17;3.30;;;8.10;99.90;;;;;;5030857;28;20515;-68
2023/10/16 04:26:47;;;;;;;4.30;3.10;;;7.90;99.90;;;;;;4998068;28;20440;-68
2023/10/16 04:31:44;;;;;;;4.20;3.07;;;7.80;99.90;;;;;;4997571;28;20495;-68
2023/10/16 04:37:24;;;;;;;5.20;3.37;;;7.80;99.90;;;;;;4995400;28;20481;-68
2023/10/16 04:47:56;;;;;;;3.60;3.00;;;7.70;99.90;;;;;;4999679;28;20938;-68
2023/10/16 04:50:29;;;;;;;5.60;3.77;;;7.70;99.90;;;;;;4999725;28;20438;-68
2023/10/16 04:56:04;;;;;;;3.57;3.03;;;7.70;99.90;;;;;;4999462;28;20428;-68
2023/10/16 05:00:56;;;;;;;;;;;;;;;;;;;;;
2023/10/16 05:22:03;;;;;;;8.07;3.47;;;7.50;99.90;;;;;;4997839;28;20447;-68
2023/10/16 06:14:13;;;;;;;10.13;4.17;;;7.20;99.90;;;;;;4997098;28;20458;-68
2023/10/16 06:16:47;;;;;;;7.17;4.13;;;7.10;99.90;;;;;;5001532;28;20471;-67
2023/10/16 06:19:21;;;;;;;8.17;4.63;;;7.10;99.90;;;;;;4999920;28;20435;-67
2023/10/16 06:21:50;;;;;;;6.83;4.37;;;7.10;99.90;;;;;;4999487;28;20919;-67
2023/10/16 06:24:26;;;;;;;9.00;6.10;;;7.10;99.90;;;;;;4997036;28;20425;-68
2023/10/16 06:26:53;;;;;;;6.10;4.90;;;7.10;99.90;;;;;;4991806;28;20802;-68
2023/10/16 06:29:19;;;;;;;6.43;4.90;;;7.20;99.90;;;;;;4999647;28;20438;-67
2023/10/16 06:31:53;;;;;;;6.40;4.97;;;7.20;99.90;;;;;;5000293;28;20797;-68
2023/10/16 06:34:19;;;;;;;6.33;4.80;;;7.20;99.90;;;;;;4997654;28;20830;-68
2023/10/16 06:36:45;;;;;;;6.10;4.60;;;7.20;99.90;;;;;;4996680;28;20417;-68
2023/10/16 06:39:22;;;;;;;5.03;4.20;;;7.10;99.90;;;;;;4995951;28;20436;-68
2023/10/16 06:41:53;;;;;;;8.53;4.80;;;7.10;99.90;;;;;;4993570;28;20423;-68
2023/10/16 06:44:21;;;;;;;6.37;4.97;;;7.10;99.90;;;;;;4995790;28;20515;-68
2023/10/16 06:46:50;;;;;;;8.33;4.67;;;7.20;99.90;;;;;;4995836;28;20531;-68
2023/10/16 06:49:16;;;;;;;8.33;4.90;;;7.20;99.90;;;;;;4993985;28;20440;-69
2023/10/16 06:51:44;;;;;;;5.67;4.57;;;7.30;99.90;;;;;;4990983;28;20491;-68
2023/10/16 06:54:10;;;;;;;10.90;3.97;;;7.30;99.90;;;;;;4991762;28;20566;-68
2023/10/16 06:56:38;;;;;;;7.70;5.17;;;7.30;99.90;;;;;;4995321;28;20519;-69
2023/10/16 06:59:04;;;;;;;10.13;5.43;;;7.20;99.90;;;;;;4996584;28;20472;-70
2023/10/16 07:01:31;;;;;;;5.80;4.80;;;7.20;99.90;;;;;;4998148;28;20957;-68
2023/10/16 07:03:57;;;;;;;7.00;4.83;;;7.20;99.90;;;;;;5001951;28;20617;-68
2023/10/16 07:06:32;;;;;;;8.60;4.60;;;7.20;99.90;;;;;;5014242;28;20443;-68
2023/10/16 07:09:00;;;;;;;9.40;6.20;;;7.20;99.90;;;;;;4993225;28;20268;-68
2023/10/16 07:11:27;;;;;;;6.37;5.03;;;7.20;99.90;;;;;;4996947;28;20443;-69
2023/10/16 07:13:52;;;;;;;8.80;4.90;;;7.20;99.90;;;;;;4994058;28;20970;-69
2023/10/16 07:16:19;;;;;;;5.73;5.07;;;7.20;99.90;;;;;;4993456;28;20488;-68
2023/10/16 07:18:45;;;;;;;5.30;4.47;;;7.30;99.90;;;;;;4992541;28;20288;-68
2023/10/16 07:21:17;;;;;;;7.50;4.90;;;7.30;99.90;;;;;;5004768;28;20523;-69
2023/10/16 07:23:43;;;;;;;7.37;5.37;;;7.30;99.90;;;;;;4994705;28;20229;-68
2023/10/16 07:26:09;;;;;;;8.20;5.43;;;7.30;99.90;;;;;;4991383;28;20492;-68
2023/10/16 07:28:36;;;;;;;7.13;5.30;;;7.30;99.90;;;;;;4998531;28;20431;-69
2023/10/16 07:31:05;;;;;;;7.47;5.10;;;7.30;99.90;;;;;;4995126;28;20420;-69
2023/10/16 07:33:32;;;;;;;13.97;5.83;;;7.30;99.90;;;;;;4997063;28;20473;-69
2023/10/16 07:36:01;;;;;;;6.23;5.13;;;7.40;99.90;;;;;;4996502;28;20474;-68
2023/10/16 07:38:28;;;;;;;8.07;5.13;;;7.40;99.90;;;;;;5004225;28;20464;-68
2023/10/16 07:40:58;;;;;;;7.00;5.80;;;7.50;99.90;;;;;;5000691;28;20539;-69
2023/10/16 07:43:26;;;;;;;6.63;5.60;;;7.60;99.90;;;;;;5000272;28;20432;-69
2023/10/16 07:48:45;;;;;;;7.73;5.90;;;7.80;99.90;;;;;;4986825;28;21344;-68
2023/10/16 07:51:16;;;;;;;6.63;5.63;;;7.90;99.90;;;;;;4995207;28;20442;-68
2023/10/16 07:53:41;;;;;;;7.90;5.63;;;8.00;99.90;;;;;;4996266;28;20954;-68
2023/10/16 07:56:25;;;;;;;9.87;6.63;;;8.00;99.90;;;;;;4997409;28;20443;-68
2023/10/16 07:59:08;;;;;;;8.27;6.20;;;8.20;99.90;;;;;;4992290;28;20209;-68
2023/10/16 08:01:42;;;;;;;9.70;6.10;;;8.20;99.90;;;;;;5000900;28;20428;-68
2023/10/16 08:07:04;;;;;;;8.43;6.17;;;8.40;99.90;;;;;;4998107;28;21024;-68
2023/10/16 08:09:48;;;;;;;11.13;6.53;;;8.50;99.90;;;;;;4996206;28;20420;-68
2023/10/16 08:12:34;;;;;;;6.33;5.73;;;8.60;99.90;;;;;;4996100;28;20459;-68
2023/10/16 08:15:14;;;;;;;9.03;5.47;;;8.70;99.90;;;;;;4993499;28;20425;-68
2023/10/16 08:17:45;;;;;;;8.20;5.90;;;8.80;99.90;;;;;;4993096;28;20508;-69
2023/10/16 08:20:21;;;;;;;9.60;6.53;;;8.90;99.90;;;;;;4992329;28;20869;-68
2023/10/16 08:22:47;;;;;;;6.80;6.10;;;9.00;99.90;;;;;;4994923;28;20451;-69
2023/10/16 08:25:31;;;;;;;8.50;5.90;;;9.10;99.90;;;;;;4993958;28;20436;-69
2023/10/16 08:27:59;;;;;;;8.40;6.93;;;9.10;99.90;;;;;;4989912;28;21140;-68
2023/10/16 08:30:33;;;;;;;7.43;5.53;;;9.10;99.90;;;;;;4993776;28;20436;-69
2023/10/16 08:33:09;;;;;;;6.53;5.63;;;9.20;99.90;;;;;;4995430;28;20480;-68
2023/10/16 08:35:38;;;;;;;6.00;5.03;;;9.30;99.90;;;;;;4996333;28;21040;-69
2023/10/16 08:38:20;;;;;;;9.43;6.17;;;9.40;99.90;;;;;;4995315;28;20474;-69
2023/10/16 08:40:57;;;;;;;6.87;5.80;;;9.50;99.90;;;;;;4997650;28;21022;-69
2023/10/16 08:43:39;;;;;;;9.40;5.40;;;9.60;99.90;;;;;;4993810;28;20458;-69
2023/10/16 08:46:18;;;;;;;8.37;5.53;;;9.70;99.90;;;;;;4994322;28;20439;-68
2023/10/16 08:48:48;;;;;;;6.33;5.73;;;9.70;99.90;;;;;;4990073;28;20435;-68
2023/10/16 08:51:16;;;;;;;8.43;5.70;;;9.70;99.90;;;;;;4982124;28;20484;-69
2023/10/16 08:53:43;;;;;;;6.57;5.97;;;9.80;99.90;;;;;;4992994;28;20452;-69
2023/10/16 08:56:09;;;;;;;8.70;7.30;;;9.80;99.90;;;;;;4989675;28;20450;-68
2023/10/16 08:58:44;;;;;;;10.00;6.23;;;9.80;99.90;;;;;;4997619;28;20475;-68
2023/10/16 09:01:12;;;;;;;8.73;6.70;;;9.80;99.90;;;;;;4998900;28;20259;-68
2023/10/16 09:04:06;;;;;;;14.17;6.27;;;9.80;99.90;;;;;;4993531;28;20451;-68
2023/10/16 09:06:38;;;;;;;6.90;5.77;;;9.90;99.90;;;;;;4990176;28;21106;-68
2023/10/16 09:09:12;;;;;;;8.90;6.80;;;9.80;99.90;;;;;;4994287;28;20463;-68
2023/10/16 09:11:39;;;;;;;8.77;6.43;;;9.90;99.90;;;;;;4997163;28;20440;-68
2023/10/16 09:14:07;;;;;;;7.90;6.37;;;9.90;99.90;;;;;;4996198;28;20455;-68
2023/10/16 09:16:34;;;;;;;7.47;6.17;;;10.00;99.90;;;;;;5006682;28;20823;-68
2023/10/16 09:19:06;;;;;;;8.43;7.30;;;9.90;99.90;;;;;;4988839;28;20465;-68
2023/10/16 09:21:38;;;;;;;8.40;6.20;;;10.00;99.90;;;;;;4993950;28;20425;-69
2023/10/16 09:24:05;;;;;;;7.77;6.07;;;10.00;99.90;;;;;;4991625;28;20475;-69
2023/10/16 09:26:38;;;;;;;7.27;6.27;;;10.00;99.90;;;;;;4998638;28;20462;-69
2023/10/16 09:29:22;;;;;;;7.73;5.97;;;10.10;99.90;;;;;;4995488;28;20421;-69
2023/10/16 09:31:48;;;;;;;6.50;5.40;;;10.20;99.90;;;;;;4993277;28;20510;-69
2023/10/16 09:34:17;;;;;;;11.00;5.90;;;10.30;99.90;;;;;;4989865;28;20841;-68
2023/10/16 09:37:06;;;;;;;7.57;5.73;;;10.40;99.90;;;;;;5001721;28;20197;-69
2023/10/16 09:39:34;;;;;;;7.87;6.20;;;10.40;99.90;;;;;;4999128;28;20423;-69
2023/10/16 09:42:05;;;;;;;7.37;6.67;;;10.50;99.90;;;;;;4993758;28;20438;-69
2023/10/16 09:44:37;;;;;;;8.33;5.83;;;10.60;99.90;;;;;;5004743;28;20884;-69
2023/10/16 09:47:25;;;;;;;6.63;6.03;;;10.60;99.90;;;;;;5000404;28;20451;-68
2023/10/16 09:49:59;;;;;;;6.40;5.80;;;10.70;99.90;;;;;;4993795;28;20520;-68
2023/10/16 09:52:27;;;;;;;7.27;5.07;;;10.80;99.90;;;;;;4993552;28;20443;-68
2023/10/16 09:54:53;;;;;;;6.60;5.10;;;10.90;99.90;;;;;;4995523;28;20435;-68
2023/10/16 09:57:22;;;;;;;6.30;5.67;;;10.90;99.90;;;;;;5000748;28;20456;-69
2023/10/16 09:59:54;;;;;;;6.40;5.80;;;11.00;99.90;;;;;;5001376;28;20423;-69
2023/10/16 10:02:25;;;;;;;6.70;5.50;;;11.00;99.90;;;;;;4999820;28;20448;-68
2023/10/16 10:04:54;;;;;;;11.73;6.10;;;11.10;99.90;;;;;;5002014;28;20427;-68
2023/10/16 10:07:22;;;;;;;5.43;4.83;;;11.20;99.90;;;;;;4996970;28;20454;-67
2023/10/16 10:09:57;;;;;;;12.77;7.30;;;11.30;99.90;;;;;;5001307;28;20837;-67
2023/10/16 10:12:41;;;;;;;27.77;11.00;;;11.30;99.90;;;;;;4993493;28;20455;-68
2023/10/16 10:15:14;;;;;;;58.00;29.63;;;11.40;99.90;;;;;;4989435;28;21042;-67
2023/10/16 10:17:42;;;;;;;9.77;5.83;;;11.50;99.90;;;;;;4992842;28;20990;-69
2023/10/16 10:20:09;;;;;;;5.90;4.87;;;11.60;99.90;;;;;;5000323;28;20793;-68
2023/10/16 10:22:36;;;;;;;10.30;4.37;;;11.70;99.90;;;;;;5004337;28;20443;-68
2023/10/16 10:25:24;;;;;;;5.53;4.70;;;11.70;99.90;;;;;;5000147;28;20450;-68
2023/10/16 10:27:53;;;;;;;6.70;4.57;;;11.90;99.90;;;;;;5001582;28;20443;-69
2023/10/16 10:30:25;;;;;;;6.10;4.00;;;11.90;99.90;;;;;;4998494;28;20967;-69
2023/10/16 10:32:57;;;;;;;4.80;4.17;;;12.00;99.90;;;;;;4992296;28;20963;-69
2023/10/16 10:35:28;;;;;;;5.93;4.43;;;12.10;99.90;;;;;;5003567;28;20461;-69
2023/10/16 10:38:26;;;;;;;4.07;3.67;;;12.20;99.90;;;;;;5003468;28;21135;-69
2023/10/16 10:41:04;;;;;;;4.80;4.03;;;12.20;99.90;;;;;;5010957;28;20433;-69
2023/10/16 10:43:58;;;;;;;5.00;4.60;;;12.30;99.90;;;;;;5009111;28;20890;-68
2023/10/16 10:46:28;;;;;;;6.27;4.10;;;12.30;99.90;;;;;;4999413;28;20432;-69
2023/10/16 10:48:54;;;;;;;8.27;5.10;;;12.40;99.90;;;;;;4996322;28;20439;-69
2023/10/16 10:51:21;;;;;;;6.20;3.50;;;12.50;99.90;;;;;;4994915;28;20428;-69
2023/10/16 10:53:54;;;;;;;5.67;3.77;;;12.50;99.90;;;;;;4996030;28;20913;-69
2023/10/16 10:56:22;;;;;;;6.53;3.53;;;12.60;99.90;;;;;;4999889;28;20441;-69
2023/10/16 10:58:49;;;;;;;7.50;3.80;;;12.70;99.90;;;;;;4999440;28;20479;-69
2023/10/16 11:01:33;;;;;;;6.30;4.60;;;12.80;99.90;;;;;;4999995;28;20432;-67
2023/10/16 11:04:01;;;;;;;6.00;3.50;;;12.80;99.90;;;;;;4996656;28;21239;-69
2023/10/16 11:06:41;;;;;;;4.73;3.10;;;12.90;99.90;;;;;;4999412;28;20432;-68
2023/10/16 11:09:13;;;;;;;4.30;3.00;;;12.90;99.90;;;;;;4995523;28;20451;-67
2023/10/16 11:11:44;;;;;;;4.10;3.50;;;13.00;99.90;;;;;;4993177;28;20432;-68
2023/10/16 11:14:12;;;;;;;9.00;4.10;;;13.10;99.90;;;;;;4996971;28;20918;-68
2023/10/16 11:16:42;;;;;;;6.93;3.10;;;13.10;99.90;;;;;;5002753;28;20482;-68
2023/10/16 11:19:09;;;;;;;4.07;3.60;;;13.30;99.90;;;;;;5010243;28;20997;-68
2023/10/16 11:21:39;;;;;;;4.40;3.40;;;13.30;99.90;;;;;;4996918;28;20489;-68
2023/10/16 11:24:06;;;;;;;4.67;3.13;;;13.40;99.90;;;;;;4993251;28;20471;-68
2023/10/16 11:26:33;;;;;;;4.00;3.60;;;13.50;99.90;;;;;;5002105;28;20937;-67
2023/10/16 11:29:00;;;;;;;6.37;4.03;;;13.60;99.90;;;;;;4994235;28;20435;-68
2023/10/16 11:31:26;;;;;;;6.67;3.90;;;13.70;99.90;;;;;;4994888;28;21363;-67
2023/10/16 11:34:02;;;;;;;5.13;3.93;;;13.90;99.90;;;;;;4995148;28;20468;-68
2023/10/16 11:36:28;;;;;;;7.60;3.43;;;14.00;99.90;;;;;;4996641;28;20480;-67
2023/10/16 11:39:06;;;;;;;4.60;3.27;;;14.10;99.90;;;;;;5001844;28;20904;-66
2023/10/16 11:41:33;;;;;;;5.07;3.63;;;14.40;99.90;;;;;;5001950;28;20647;-67
2023/10/16 11:44:04;;;;;;;5.90;3.53;;;14.70;99.90;;;;;;4994865;28;20469;-67
2023/10/16 11:46:39;;;;;;;4.87;3.40;;;15.70;99.90;;;;;;4999560;28;20427;-67
2023/10/16 11:51:54;;;;;;;3.63;3.13;;;20.80;99.90;;;;;;4994579;28;20443;-67
2023/10/16 11:54:23;;;;;;;3.60;3.30;;;23.30;94.70;;;;;;4989953;28;20444;-67
2023/10/16 11:56:52;;;;;;;4.73;2.97;;;24.90;83.00;;;;;;4991014;28;20775;-67
2023/10/16 11:59:19;;;;;;;4.07;3.10;;;26.00;73.60;;;;;;4987205;28;21003;-68
2023/10/16 12:01:45;;;;;;;3.10;2.80;;;27.30;65.00;;;;;;4995737;28;20495;-68
2023/10/16 12:04:12;;;;;;;3.77;2.93;;;28.60;57.60;;;;;;5002370;28;21110;-69
2023/10/16 12:06:38;;;;;;;3.30;2.73;;;29.90;54.50;;;;;;4997930;28;20500;-68
2023/10/16 12:09:05;;;;;;;4.20;3.27;;;30.90;50.10;;;;;;4986079;28;20456;-68
2023/10/16 12:11:31;;;;;;;3.57;2.93;;;31.80;47.60;;;;;;4988396;28;20915;-68
2023/10/16 12:13:56;;;;;;;3.93;2.67;;;32.60;45.00;;;;;;4998354;28;20458;-68
2023/10/16 12:16:24;;;;;;;3.57;2.90;;;33.40;43.30;;;;;;4994112;28;20562;-68
2023/10/16 12:18:51;;;;;;;3.17;2.60;;;34.00;41.30;;;;;;4993064;28;20201;-66
2023/10/16 12:21:17;;;;;;;2.97;2.50;;;34.50;39.30;;;;;;4994377;28;20444;-69
2023/10/16 12:23:44;;;;;;;4.23;3.13;;;35.00;37.70;;;;;;5002101;28;20443;-68
2023/10/16 12:26:09;;;;;;;3.07;2.50;;;35.60;36.60;;;;;;4987740;28;20196;-67
2023/10/16 12:28:35;;;;;;;2.90;2.60;;;35.90;35.40;;;;;;4991329;28;20444;-68
2023/10/16 12:31:03;;;;;;;2.60;2.40;;;36.20;34.40;;;;;;4994901;28;20189;-67
2023/10/16 12:33:30;;;;;;;3.37;2.63;;;36.60;33.60;;;;;;4992957;28;20201;-68
2023/10/16 12:35:56;;;;;;;2.90;2.40;;;36.80;32.40;;;;;;4994754;28;20426;-68
2023/10/16 12:38:23;;;;;;;3.43;2.37;;;37.10;31.80;;;;;;4993921;28;20476;-68
2023/10/16 12:40:53;;;;;;;2.73;2.50;;;37.30;31.00;;;;;;4999920;28;20185;-68
2023/10/16 12:43:20;;;;;;;4.33;2.57;;;37.40;30.40;;;;;;4995526;28;20420;-67
2023/10/16 12:45:47;;;;;;;3.13;2.30;;;37.60;29.80;;;;;;4998211;28;20410;-67
2023/10/16 12:48:14;;;;;;;2.77;2.30;;;37.70;29.40;;;;;;4998011;28;20566;-67
2023/10/16 12:50:39;;;;;;;3.60;2.73;;;37.70;29.10;;;;;;4996692;28;20424;-67
2023/10/16 12:53:05;;;;;;;3.20;2.77;;;37.70;28.80;;;;;;4995705;28;20426;-67
2023/10/16 12:55:31;;;;;;;4.13;2.20;;;37.60;28.50;;;;;;5000283;28;20184;-67
2023/10/16 12:57:56;;;;;;;2.37;2.17;;;37.10;27.90;;;;;;4992795;28;20468;-67
2023/10/16 13:00:23;;;;;;;2.63;2.20;;;36.20;27.80;;;;;;5002675;28;20619;-67
2023/10/16 13:02:51;;;;;;;4.40;4.00;;;34.80;28.10;;;;;;4996970;28;20190;-67
2023/10/16 13:05:17;;;;;;;3.70;3.07;;;33.40;28.80;;;;;;4992763;28;20857;-68
2023/10/16 13:07:44;;;;;;;5.80;5.30;;;32.10;29.20;;;;;;4991134;28;20453;-66
2023/10/16 13:10:15;;;;;;;3.00;2.70;;;31.00;29.90;;;;;;4997216;28;20488;-66
2023/10/16 13:12:44;;;;;;;4.13;3.00;;;30.10;30.60;;;;;;5001876;28;20947;-66
2023/10/16 13:15:11;;;;;;;4.00;2.80;;;29.40;31.40;;;;;;4999505;28;20428;-67
2023/10/16 13:17:37;;;;;;;2.80;2.27;;;29.00;32.40;;;;;;5004025;28;20502;-67
2023/10/16 13:20:12;;;;;;;4.47;2.83;;;28.50;32.60;;;;;;4998258;28;20961;-66
2023/10/16 13:22:38;;;;;;;3.53;2.20;;;28.10;33.00;;;;;;5001345;28;20200;-66
2023/10/16 13:25:11;;;;;;;4.07;2.53;;;27.60;33.40;;;;;;5003485;28;20845;-66
2023/10/16 13:27:40;;;;;;;3.40;2.00;;;27.30;34.00;;;;;;5002623;28;20188;-66
2023/10/16 13:30:11;;;;;;;2.57;2.20;;;27.00;34.30;;;;;;4996293;28;20449;-66
2023/10/16 13:32:41;;;;;;;3.00;2.07;;;26.70;34.70;;;;;;5001634;28;20451;-66
2023/10/16 13:35:12;;;;;;;2.40;2.00;;;26.50;34.90;;;;;;5000032;28;20493;-66
2023/10/16 13:37:42;;;;;;;2.70;1.90;;;26.20;35.10;;;;;;5007146;28;20458;-66
2023/10/16 13:40:15;;;;;;;3.83;2.50;;;25.90;34.50;;;;;;4999437;28;20450;-66
2023/10/16 13:42:41;;;;;;;2.70;2.50;;;25.50;34.40;;;;;;4998777;28;20916;-67
2023/10/16 13:45:12;;;;;;;3.50;2.60;;;25.30;35.30;;;;;;5000959;28;20542;-67
2023/10/16 13:47:42;;;;;;;3.23;2.50;;;24.90;34.80;;;;;;5000624;28;20452;-68
2023/10/16 13:50:09;;;;;;;3.60;2.57;;;24.60;35.60;;;;;;5001206;28;20582;-69
2023/10/16 13:52:36;;;;;;;3.93;2.43;;;24.30;36.10;;;;;;5000790;28;20543;-66
2023/10/16 13:55:11;;;;;;;3.80;2.63;;;24.00;36.90;;;;;;4999015;28;20438;-66
2023/10/16 13:57:39;;;;;;;4.87;2.63;;;23.80;37.60;;;;;;4999953;28;20456;-67
2023/10/16 14:00:06;;;;;;;4.50;2.80;;;23.60;38.30;;;;;;4997978;28;21003;-67
2023/10/16 14:02:36;;;;;;;4.73;3.07;;;23.30;38.80;;;;;;5000977;28;20535;-67
2023/10/16 14:05:06;;;;;;;4.83;3.13;;;23.10;39.10;;;;;;5000834;28;20772;-67
2023/10/16 14:07:32;;;;;;;3.83;2.87;;;22.90;39.60;;;;;;5004630;28;20451;-67
2023/10/16 14:09:59;;;;;;;3.60;3.00;;;22.70;40.00;;;;;;4998644;28;20689;-67
2023/10/16 14:12:30;;;;;;;4.30;3.20;;;22.40;40.60;;;;;;4999082;28;20454;-67
2023/10/16 14:14:56;;;;;;;3.10;2.70;;;22.10;41.10;;;;;;4999638;28;20419;-67
2023/10/16 14:17:22;;;;;;;3.80;3.03;;;21.90;41.20;;;;;;5008612;28;20464;-67
2023/10/16 14:19:48;;;;;;;3.60;3.13;;;21.70;41.60;;;;;;5000465;28;20177;-67
2023/10/16 14:22:15;;;;;;;5.43;3.40;;;21.50;41.90;;;;;;5004332;28;20444;-67
2023/10/16 14:24:44;;;;;;;3.00;2.60;;;21.30;42.30;;;;;;4998522;28;20613;-67
2023/10/16 14:27:18;;;;;;;4.43;2.57;;;21.20;42.70;;;;;;4998240;28;20417;-68
2023/10/16 14:29:45;;;;;;;7.10;4.97;;;21.10;43.00;;;;;;5004330;28;20433;-67
2023/10/16 14:32:11;;;;;;;4.10;3.30;;;20.80;43.30;;;;;;4998529;28;20523;-67
2023/10/16 14:34:36;;;;;;;5.40;4.03;;;20.60;43.90;;;;;;5006538;28;20443;-66
2023/10/16 14:37:05;;;;;;;6.00;4.20;;;20.40;44.00;;;;;;5004214;28;20442;-67
2023/10/16 14:39:31;;;;;;;3.90;3.03;;;20.30;44.80;;;;;;4995407;28;20182;-66
2023/10/16 14:42:01;;;;;;;5.37;3.50;;;20.00;45.20;;;;;;4997701;28;20435;-67
2023/10/16 14:44:27;;;;;;;4.70;3.00;;;19.90;45.40;;;;;;5001841;28;20415;-67
2023/10/16 14:46:56;;;;;;;3.77;2.70;;;19.60;45.80;;;;;;5002416;28;20797;-67
2023/10/16 14:49:25;;;;;;;3.43;2.77;;;19.50;46.10;;;;;;5005337;28;20189;-68
2023/10/16 14:51:51;;;;;;;3.83;2.70;;;19.40;46.50;;;;;;5000182;28;20806;-67
2023/10/16 14:54:18;;;;;;;4.03;2.73;;;19.20;46.90;;;;;;5004481;28;20423;-66
2023/10/16 14:56:46;;;;;;;5.57;2.90;;;19.00;47.40;;;;;;5013180;28;20420;-67
2023/10/16 14:59:32;;;;;;;3.00;2.53;;;18.90;47.60;;;;;;4998054;28;20813;-66